aviador You're here:

PADM Decoded Metar

MARSHALL in AK, USA
Report Time2018-01-22 11:56:00
UTC Time2018-01-22 12:05:14
Flight Rules vfr VFR
Wind340° at 16 Gusting to 19 kt
W.Decomp.*RWY 25: 3.6 kt HW 15.6 kt RCW
W.Rank340° ranks 23
Current wind is above 340° avg. (8.6)
Visibility9999 m
Phenomena:N/A
Clouds:N/A
Expected CloudBase > 2,000 ft AGL from Temp-Dew spread
CeilingNone
Temp-21°C (ISA -36)
Dew Point-26°C (64% RH)
AAT-30.5°C
QNH989 hPa
Density Alt-3,642 ft
Elevation102 ft
Report Wrong Elevation
Raw Report
PADM 221156Z AUTO 34016G19KT 10SM CLR M21/M26 A2921 RMK AO2 SLP900
T12111256 11206 21222 53014 FZRANO=

Extra information for PADM:More info

Metar Taf Metar & Taf Last 4 Metars F.Rules Stats Wind Profile Meteogram Temp Stats Airport Information Weather charts Add Link Nearby VenuesMetar ALERT Operation Metar Decoded Social comments

AIRNAV info for PADM